sensor_id;sensor_type;location;lat;lon;timestamp;P1;durP1;ratioP1;P2;durP2;ratioP2
69854;SDS011;57146;48.140;16.304;2023-12-20T00:02:20;42.10;;;17.20;;
69854;SDS011;57146;48.140;16.304;2023-12-20T00:04:47;39.10;;;16.52;;
69854;SDS011;57146;48.140;16.304;2023-12-20T00:07:15;40.00;;;16.60;;
69854;SDS011;57146;48.140;16.304;2023-12-20T00:09:42;42.22;;;16.10;;
69854;SDS011;57146;48.140;16.304;2023-12-20T00:12:10;39.55;;;16.33;;
69854;SDS011;57146;48.140;16.304;2023-12-20T00:14:37;38.65;;;16.08;;
69854;SDS011;57146;48.140;16.304;2023-12-20T00:17:04;39.65;;;16.83;;
69854;SDS011;57146;48.140;16.304;2023-12-20T00:19:31;38.10;;;16.53;;
69854;SDS011;57146;48.140;16.304;2023-12-20T00:21:58;36.50;;;15.35;;
69854;SDS011;57146;48.140;16.304;2023-12-20T00:24:25;37.45;;;15.35;;
69854;SDS011;57146;48.140;16.304;2023-12-20T00:26:53;37.35;;;14.85;;
69854;SDS011;57146;48.140;16.304;2023-12-20T00:29:20;35.63;;;14.80;;
69854;SDS011;57146;48.140;16.304;2023-12-20T00:31:47;36.10;;;15.07;;
69854;SDS011;57146;48.140;16.304;2023-12-20T00:34:15;35.60;;;14.48;;
69854;SDS011;57146;48.140;16.304;2023-12-20T00:36:42;33.00;;;14.63;;
69854;SDS011;57146;48.140;16.304;2023-12-20T00:39:09;33.63;;;14.18;;
69854;SDS011;57146;48.140;16.304;2023-12-20T00:41:36;34.20;;;15.00;;
69854;SDS011;57146;48.140;16.304;2023-12-20T00:44:03;35.60;;;14.27;;
69854;SDS011;57146;48.140;16.304;2023-12-20T00:46:30;36.30;;;13.60;;
69854;SDS011;57146;48.140;16.304;2023-12-20T00:48:57;32.95;;;14.18;;
69854;SDS011;57146;48.140;16.304;2023-12-20T00:51:24;33.30;;;13.32;;
69854;SDS011;57146;48.140;16.304;2023-12-20T00:53:51;33.10;;;13.50;;
69854;SDS011;57146;48.140;16.304;2023-12-20T00:56:19;33.97;;;13.63;;
69854;SDS011;57146;48.140;16.304;2023-12-20T00:58:47;32.50;;;13.13;;
69854;SDS011;57146;48.140;16.304;2023-12-20T01:01:15;32.60;;;13.30;;
69854;SDS011;57146;48.140;16.304;2023-12-20T01:03:42;35.25;;;13.63;;
69854;SDS011;57146;48.140;16.304;2023-12-20T01:06:09;34.80;;;13.68;;
69854;SDS011;57146;48.140;16.304;2023-12-20T01:08:37;29.40;;;12.73;;
69854;SDS011;57146;48.140;16.304;2023-12-20T01:11:04;31.10;;;13.60;;
69854;SDS011;57146;48.140;16.304;2023-12-20T01:13:31;28.48;;;12.15;;
69854;SDS011;57146;48.140;16.304;2023-12-20T01:15:58;33.78;;;13.45;;
69854;SDS011;57146;48.140;16.304;2023-12-20T01:18:27;34.83;;;13.57;;
69854;SDS011;57146;48.140;16.304;2023-12-20T01:20:54;34.73;;;14.53;;
69854;SDS011;57146;48.140;16.304;2023-12-20T01:23:21;33.85;;;13.38;;
69854;SDS011;57146;48.140;16.304;2023-12-20T01:25:48;34.67;;;14.07;;
69854;SDS011;57146;48.140;16.304;2023-12-20T01:28:15;35.45;;;13.77;;
69854;SDS011;57146;48.140;16.304;2023-12-20T01:30:42;34.70;;;14.30;;
69854;SDS011;57146;48.140;16.304;2023-12-20T01:33:09;32.33;;;13.07;;
69854;SDS011;57146;48.140;16.304;2023-12-20T01:35:37;31.25;;;13.50;;
69854;SDS011;57146;48.140;16.304;2023-12-20T01:38:04;36.03;;;14.63;;
69854;SDS011;57146;48.140;16.304;2023-12-20T01:40:31;31.60;;;13.55;;
69854;SDS011;57146;48.140;16.304;2023-12-20T01:42:59;32.30;;;13.32;;
69854;SDS011;57146;48.140;16.304;2023-12-20T01:45:26;34.50;;;13.90;;
69854;SDS011;57146;48.140;16.304;2023-12-20T01:47:56;35.42;;;14.50;;
69854;SDS011;57146;48.140;16.304;2023-12-20T01:50:25;34.33;;;14.10;;
69854;SDS011;57146;48.140;16.304;2023-12-20T01:52:55;34.33;;;13.68;;
69854;SDS011;57146;48.140;16.304;2023-12-20T01:55:25;34.38;;;13.25;;
69854;SDS011;57146;48.140;16.304;2023-12-20T01:57:54;35.20;;;14.63;;
69854;SDS011;57146;48.140;16.304;2023-12-20T02:00:21;34.72;;;13.63;;
69854;SDS011;57146;48.140;16.304;2023-12-20T02:02:50;34.03;;;12.88;;
69854;SDS011;57146;48.140;16.304;2023-12-20T02:05:19;32.85;;;12.82;;
69854;SDS011;57146;48.140;16.304;2023-12-20T02:07:48;30.95;;;12.15;;
69854;SDS011;57146;48.140;16.304;2023-12-20T02:10:15;31.50;;;12.57;;
69854;SDS011;57146;48.140;16.304;2023-12-20T02:12:43;28.58;;;12.43;;
69854;SDS011;57146;48.140;16.304;2023-12-20T02:15:10;29.25;;;12.35;;
69854;SDS011;57146;48.140;16.304;2023-12-20T02:17:38;29.75;;;12.25;;
69854;SDS011;57146;48.140;16.304;2023-12-20T02:20:06;30.15;;;12.57;;
69854;SDS011;57146;48.140;16.304;2023-12-20T02:22:34;31.43;;;12.60;;
69854;SDS011;57146;48.140;16.304;2023-12-20T02:25:01;30.50;;;12.15;;
69854;SDS011;57146;48.140;16.304;2023-12-20T02:27:29;28.50;;;12.23;;
69854;SDS011;57146;48.140;16.304;2023-12-20T02:29:56;30.55;;;12.60;;
69854;SDS011;57146;48.140;16.304;2023-12-20T02:32:24;29.60;;;12.38;;
69854;SDS011;57146;48.140;16.304;2023-12-20T02:34:52;29.20;;;12.37;;
69854;SDS011;57146;48.140;16.304;2023-12-20T02:37:19;28.27;;;12.32;;
69854;SDS011;57146;48.140;16.304;2023-12-20T02:39:46;30.95;;;12.23;;
69854;SDS011;57146;48.140;16.304;2023-12-20T02:42:13;31.23;;;12.10;;
69854;SDS011;57146;48.140;16.304;2023-12-20T02:44:41;28.00;;;11.80;;
69854;SDS011;57146;48.140;16.304;2023-12-20T02:47:08;29.70;;;12.07;;
69854;SDS011;57146;48.140;16.304;2023-12-20T02:49:35;30.00;;;12.57;;
69854;SDS011;57146;48.140;16.304;2023-12-20T02:52:02;29.10;;;11.68;;
69854;SDS011;57146;48.140;16.304;2023-12-20T02:54:30;30.75;;;12.45;;
69854;SDS011;57146;48.140;16.304;2023-12-20T02:56:57;28.52;;;11.70;;
69854;SDS011;57146;48.140;16.304;2023-12-20T02:59:24;30.77;;;11.90;;
69854;SDS011;57146;48.140;16.304;2023-12-20T03:01:52;27.42;;;11.18;;
69854;SDS011;57146;48.140;16.304;2023-12-20T03:04:19;31.50;;;11.65;;
69854;SDS011;57146;48.140;16.304;2023-12-20T03:06:46;26.30;;;10.65;;
69854;SDS011;57146;48.140;16.304;2023-12-20T03:09:13;26.02;;;10.63;;
69854;SDS011;57146;48.140;16.304;2023-12-20T03:11:40;27.53;;;11.33;;
69854;SDS011;57146;48.140;16.304;2023-12-20T03:14:07;27.73;;;11.07;;
69854;SDS011;57146;48.140;16.304;2023-12-20T03:16:34;27.67;;;11.45;;
69854;SDS011;57146;48.140;16.304;2023-12-20T03:19:02;27.75;;;11.60;;
69854;SDS011;57146;48.140;16.304;2023-12-20T03:21:29;27.67;;;11.20;;
69854;SDS011;57146;48.140;16.304;2023-12-20T03:23:56;28.57;;;11.50;;
69854;SDS011;57146;48.140;16.304;2023-12-20T03:26:23;28.92;;;11.75;;
69854;SDS011;57146;48.140;16.304;2023-12-20T03:28:50;31.48;;;11.77;;
69854;SDS011;57146;48.140;16.304;2023-12-20T03:31:17;30.88;;;11.98;;
69854;SDS011;57146;48.140;16.304;2023-12-20T03:33:45;34.03;;;12.45;;
69854;SDS011;57146;48.140;16.304;2023-12-20T03:36:12;28.87;;;11.87;;
69854;SDS011;57146;48.140;16.304;2023-12-20T03:38:39;29.13;;;11.50;;
69854;SDS011;57146;48.140;16.304;2023-12-20T03:41:07;31.08;;;12.40;;
69854;SDS011;57146;48.140;16.304;2023-12-20T03:43:34;28.05;;;11.82;;
69854;SDS011;57146;48.140;16.304;2023-12-20T03:46:02;29.13;;;12.02;;
69854;SDS011;57146;48.140;16.304;2023-12-20T03:48:30;30.10;;;11.07;;
69854;SDS011;57146;48.140;16.304;2023-12-20T03:50:58;26.63;;;11.18;;
69854;SDS011;57146;48.140;16.304;2023-12-20T03:53:25;33.03;;;12.93;;
69854;SDS011;57146;48.140;16.304;2023-12-20T03:55:52;32.35;;;12.27;;
69854;SDS011;57146;48.140;16.304;2023-12-20T03:58:19;31.52;;;12.50;;
69854;SDS011;57146;48.140;16.304;2023-12-20T04:00:46;31.27;;;12.43;;
69854;SDS011;57146;48.140;16.304;2023-12-20T04:03:13;32.92;;;12.45;;
69854;SDS011;57146;48.140;16.304;2023-12-20T04:05:40;29.27;;;11.95;;
69854;SDS011;57146;48.140;16.304;2023-12-20T04:08:08;28.48;;;11.63;;
69854;SDS011;57146;48.140;16.304;2023-12-20T04:10:36;28.60;;;11.75;;
69854;SDS011;57146;48.140;16.304;2023-12-20T04:13:03;30.57;;;11.67;;
69854;SDS011;57146;48.140;16.304;2023-12-20T04:15:31;29.88;;;12.43;;
69854;SDS011;57146;48.140;16.304;2023-12-20T04:17:58;28.13;;;11.68;;
69854;SDS011;57146;48.140;16.304;2023-12-20T04:20:25;28.05;;;12.00;;
69854;SDS011;57146;48.140;16.304;2023-12-20T04:22:52;28.73;;;11.90;;
69854;SDS011;57146;48.140;16.304;2023-12-20T04:25:19;29.87;;;12.10;;
69854;SDS011;57146;48.140;16.304;2023-12-20T04:27:46;34.47;;;13.18;;
69854;SDS011;57146;48.140;16.304;2023-12-20T04:30:14;34.28;;;12.68;;
69854;SDS011;57146;48.140;16.304;2023-12-20T04:32:41;30.55;;;12.15;;
69854;SDS011;57146;48.140;16.304;2023-12-20T04:35:09;35.00;;;12.38;;
69854;SDS011;57146;48.140;16.304;2023-12-20T04:37:36;33.97;;;12.80;;
69854;SDS011;57146;48.140;16.304;2023-12-20T04:40:03;31.10;;;11.88;;
69854;SDS011;57146;48.140;16.304;2023-12-20T04:42:31;29.25;;;11.80;;
69854;SDS011;57146;48.140;16.304;2023-12-20T04:44:58;29.20;;;11.93;;
69854;SDS011;57146;48.140;16.304;2023-12-20T04:47:25;29.60;;;11.80;;
69854;SDS011;57146;48.140;16.304;2023-12-20T04:49:52;31.60;;;12.33;;
69854;SDS011;57146;48.140;16.304;2023-12-20T04:52:19;30.63;;;11.90;;
69854;SDS011;57146;48.140;16.304;2023-12-20T04:54:46;31.50;;;12.20;;
69854;SDS011;57146;48.140;16.304;2023-12-20T04:57:13;29.75;;;11.60;;
69854;SDS011;57146;48.140;16.304;2023-12-20T04:59:40;29.48;;;11.80;;
69854;SDS011;57146;48.140;16.304;2023-12-20T05:02:07;29.07;;;11.30;;
69854;SDS011;57146;48.140;16.304;2023-12-20T05:04:35;32.92;;;12.15;;
69854;SDS011;57146;48.140;16.304;2023-12-20T05:07:03;28.65;;;11.85;;
69854;SDS011;57146;48.140;16.304;2023-12-20T05:09:30;32.05;;;12.30;;
69854;SDS011;57146;48.140;16.304;2023-12-20T05:11:57;28.73;;;11.48;;
69854;SDS011;57146;48.140;16.304;2023-12-20T05:14:25;28.67;;;11.20;;
69854;SDS011;57146;48.140;16.304;2023-12-20T05:16:52;30.92;;;11.73;;
69854;SDS011;57146;48.140;16.304;2023-12-20T05:19:19;29.27;;;11.63;;
69854;SDS011;57146;48.140;16.304;2023-12-20T05:21:46;29.17;;;11.63;;
69854;SDS011;57146;48.140;16.304;2023-12-20T05:24:13;27.17;;;11.27;;
69854;SDS011;57146;48.140;16.304;2023-12-20T05:26:40;29.67;;;11.27;;
69854;SDS011;57146;48.140;16.304;2023-12-20T05:29:08;29.88;;;11.63;;
69854;SDS011;57146;48.140;16.304;2023-12-20T05:31:35;30.30;;;11.32;;
69854;SDS011;57146;48.140;16.304;2023-12-20T05:34:02;29.35;;;11.25;;
69854;SDS011;57146;48.140;16.304;2023-12-20T05:36:29;30.20;;;11.98;;
69854;SDS011;57146;48.140;16.304;2023-12-20T05:38:56;30.90;;;11.23;;
69854;SDS011;57146;48.140;16.304;2023-12-20T05:41:23;26.08;;;10.85;;
69854;SDS011;57146;48.140;16.304;2023-12-20T05:43:50;27.98;;;10.73;;
69854;SDS011;57146;48.140;16.304;2023-12-20T05:46:17;26.27;;;10.60;;
69854;SDS011;57146;48.140;16.304;2023-12-20T05:48:44;26.55;;;10.35;;
69854;SDS011;57146;48.140;16.304;2023-12-20T05:51:12;25.47;;;10.20;;
69854;SDS011;57146;48.140;16.304;2023-12-20T05:53:39;26.13;;;9.93;;
69854;SDS011;57146;48.140;16.304;2023-12-20T05:56:06;28.05;;;10.60;;
69854;SDS011;57146;48.140;16.304;2023-12-20T05:58:33;28.63;;;10.70;;
69854;SDS011;57146;48.140;16.304;2023-12-20T06:01:00;26.35;;;10.02;;
69854;SDS011;57146;48.140;16.304;2023-12-20T06:03:27;26.77;;;10.23;;
69854;SDS011;57146;48.140;16.304;2023-12-20T06:05:54;27.00;;;10.27;;
69854;SDS011;57146;48.140;16.304;2023-12-20T06:08:38;25.45;;;10.23;;
69854;SDS011;57146;48.140;16.304;2023-12-20T06:11:06;22.52;;;9.63;;
69854;SDS011;57146;48.140;16.304;2023-12-20T06:13:33;27.35;;;10.85;;
69854;SDS011;57146;48.140;16.304;2023-12-20T06:16:00;25.90;;;9.77;;
69854;SDS011;57146;48.140;16.304;2023-12-20T06:18:27;26.75;;;9.65;;
69854;SDS011;57146;48.140;16.304;2023-12-20T06:20:54;23.85;;;9.73;;
69854;SDS011;57146;48.140;16.304;2023-12-20T06:23:21;23.35;;;9.05;;
69854;SDS011;57146;48.140;16.304;2023-12-20T06:25:48;19.15;;;7.78;;
69854;SDS011;57146;48.140;16.304;2023-12-20T06:28:15;22.37;;;8.13;;
69854;SDS011;57146;48.140;16.304;2023-12-20T06:30:42;16.35;;;6.43;;
69854;SDS011;57146;48.140;16.304;2023-12-20T06:33:10;7.90;;;2.10;;
69854;SDS011;57146;48.140;16.304;2023-12-20T06:35:37;5.65;;;0.90;;
69854;SDS011;57146;48.140;16.304;2023-12-20T06:38:04;4.43;;;1.08;;
69854;SDS011;57146;48.140;16.304;2023-12-20T06:40:31;4.20;;;0.80;;
69854;SDS011;57146;48.140;16.304;2023-12-20T06:42:58;4.10;;;0.82;;
69854;SDS011;57146;48.140;16.304;2023-12-20T06:45:38;6.28;;;0.95;;
69854;SDS011;57146;48.140;16.304;2023-12-20T06:48:05;5.80;;;1.20;;
69854;SDS011;57146;48.140;16.304;2023-12-20T06:50:32;3.67;;;0.90;;
69854;SDS011;57146;48.140;16.304;2023-12-20T06:52:59;4.93;;;0.70;;
69854;SDS011;57146;48.140;16.304;2023-12-20T06:55:26;4.60;;;0.88;;
69854;SDS011;57146;48.140;16.304;2023-12-20T06:57:54;4.85;;;0.77;;
69854;SDS011;57146;48.140;16.304;2023-12-20T07:00:21;4.20;;;0.70;;
69854;SDS011;57146;48.140;16.304;2023-12-20T07:02:48;3.58;;;0.70;;
69854;SDS011;57146;48.140;16.304;2023-12-20T07:05:18;4.27;;;0.70;;
69854;SDS011;57146;48.140;16.304;2023-12-20T07:07:45;4.40;;;1.00;;
69854;SDS011;57146;48.140;16.304;2023-12-20T07:10:13;5.70;;;1.10;;
69854;SDS011;57146;48.140;16.304;2023-12-20T07:12:40;5.22;;;1.00;;
69854;SDS011;57146;48.140;16.304;2023-12-20T07:15:08;3.78;;;0.60;;
69854;SDS011;57146;48.140;16.304;2023-12-20T07:17:35;4.47;;;0.73;;
69854;SDS011;57146;48.140;16.304;2023-12-20T07:20:02;5.07;;;0.77;;
69854;SDS011;57146;48.140;16.304;2023-12-20T07:22:30;3.55;;;0.77;;
69854;SDS011;57146;48.140;16.304;2023-12-20T07:24:58;4.97;;;0.70;;
69854;SDS011;57146;48.140;16.304;2023-12-20T07:27:26;3.75;;;0.50;;
69854;SDS011;57146;48.140;16.304;2023-12-20T07:29:54;4.80;;;0.83;;
69854;SDS011;57146;48.140;16.304;2023-12-20T07:32:21;4.25;;;0.60;;
69854;SDS011;57146;48.140;16.304;2023-12-20T07:34:48;5.72;;;0.70;;
69854;SDS011;57146;48.140;16.304;2023-12-20T07:37:15;3.22;;;0.38;;
69854;SDS011;57146;48.140;16.304;2023-12-20T07:39:43;4.22;;;0.63;;
69854;SDS011;57146;48.140;16.304;2023-12-20T07:42:10;4.33;;;0.50;;
69854;SDS011;57146;48.140;16.304;2023-12-20T07:44:37;5.88;;;0.70;;
69854;SDS011;57146;48.140;16.304;2023-12-20T07:47:04;3.72;;;0.60;;
69854;SDS011;57146;48.140;16.304;2023-12-20T07:49:31;4.38;;;0.52;;
69854;SDS011;57146;48.140;16.304;2023-12-20T07:51:59;4.15;;;0.60;;
69854;SDS011;57146;48.140;16.304;2023-12-20T07:54:26;4.80;;;0.67;;
69854;SDS011;57146;48.140;16.304;2023-12-20T07:56:53;4.13;;;0.73;;
69854;SDS011;57146;48.140;16.304;2023-12-20T07:59:20;3.47;;;0.60;;
69854;SDS011;57146;48.140;16.304;2023-12-20T08:01:58;4.20;;;0.68;;
69854;SDS011;57146;48.140;16.304;2023-12-20T08:04:26;5.18;;;1.15;;
69854;SDS011;57146;48.140;16.304;2023-12-20T08:06:53;4.27;;;1.30;;
69854;SDS011;57146;48.140;16.304;2023-12-20T08:09:20;3.90;;;0.80;;
69854;SDS011;57146;48.140;16.304;2023-12-20T08:11:47;4.35;;;0.77;;
69854;SDS011;57146;48.140;16.304;2023-12-20T08:14:15;3.40;;;0.60;;
69854;SDS011;57146;48.140;16.304;2023-12-20T08:16:42;4.05;;;0.75;;
69854;SDS011;57146;48.140;16.304;2023-12-20T08:19:09;5.13;;;1.00;;
69854;SDS011;57146;48.140;16.304;2023-12-20T08:21:37;4.95;;;0.95;;
69854;SDS011;57146;48.140;16.304;2023-12-20T08:24:04;4.97;;;0.80;;
69854;SDS011;57146;48.140;16.304;2023-12-20T08:26:32;7.75;;;0.90;;
69854;SDS011;57146;48.140;16.304;2023-12-20T08:29:00;4.68;;;0.77;;
69854;SDS011;57146;48.140;16.304;2023-12-20T08:31:28;3.60;;;0.63;;
69854;SDS011;57146;48.140;16.304;2023-12-20T08:33:56;4.57;;;0.65;;
69854;SDS011;57146;48.140;16.304;2023-12-20T08:36:23;3.33;;;0.60;;
69854;SDS011;57146;48.140;16.304;2023-12-20T08:38:50;3.35;;;0.63;;
69854;SDS011;57146;48.140;16.304;2023-12-20T08:41:17;4.53;;;1.05;;
69854;SDS011;57146;48.140;16.304;2023-12-20T08:43:44;4.17;;;0.67;;
69854;SDS011;57146;48.140;16.304;2023-12-20T08:46:12;3.08;;;0.55;;
69854;SDS011;57146;48.140;16.304;2023-12-20T08:48:41;5.35;;;0.88;;
69854;SDS011;57146;48.140;16.304;2023-12-20T08:51:09;5.10;;;0.95;;
69854;SDS011;57146;48.140;16.304;2023-12-20T08:53:37;3.05;;;0.60;;
69854;SDS011;57146;48.140;16.304;2023-12-20T08:56:04;6.80;;;0.70;;
69854;SDS011;57146;48.140;16.304;2023-12-20T08:58:31;5.25;;;0.77;;
69854;SDS011;57146;48.140;16.304;2023-12-20T09:00:58;4.68;;;0.75;;
69854;SDS011;57146;48.140;16.304;2023-12-20T09:03:25;3.45;;;0.65;;
69854;SDS011;57146;48.140;16.304;2023-12-20T09:05:52;3.88;;;0.70;;
69854;SDS011;57146;48.140;16.304;2023-12-20T09:08:19;3.33;;;0.57;;
69854;SDS011;57146;48.140;16.304;2023-12-20T09:10:46;3.25;;;0.50;;
69854;SDS011;57146;48.140;16.304;2023-12-20T09:13:14;5.25;;;0.70;;
69854;SDS011;57146;48.140;16.304;2023-12-20T09:15:41;4.00;;;0.35;;
69854;SDS011;57146;48.140;16.304;2023-12-20T09:18:08;2.88;;;0.30;;
69854;SDS011;57146;48.140;16.304;2023-12-20T09:20:35;2.23;;;0.20;;
69854;SDS011;57146;48.140;16.304;2023-12-20T09:23:05;5.03;;;0.20;;
69854;SDS011;57146;48.140;16.304;2023-12-20T09:25:32;2.47;;;0.10;;
69854;SDS011;57146;48.140;16.304;2023-12-20T09:27:59;2.20;;;0.13;;
69854;SDS011;57146;48.140;16.304;2023-12-20T09:30:26;1.90;;;0.08;;
69854;SDS011;57146;48.140;16.304;2023-12-20T09:32:54;2.00;;;0.10;;
69854;SDS011;57146;48.140;16.304;2023-12-20T09:35:22;1.77;;;0.10;;
69854;SDS011;57146;48.140;16.304;2023-12-20T09:37:50;2.33;;;0.10;;
69854;SDS011;57146;48.140;16.304;2023-12-20T09:40:20;2.63;;;0.15;;
69854;SDS011;57146;48.140;16.304;2023-12-20T09:45:35;2.37;;;0.10;;
69854;SDS011;57146;48.140;16.304;2023-12-20T09:48:02;3.67;;;0.10;;
69854;SDS011;57146;48.140;16.304;2023-12-20T09:50:30;3.20;;;0.10;;
69854;SDS011;57146;48.140;16.304;2023-12-20T09:52:58;3.58;;;0.10;;
69854;SDS011;57146;48.140;16.304;2023-12-20T09:55:27;2.03;;;0.10;;
69854;SDS011;57146;48.140;16.304;2023-12-20T09:57:57;3.30;;;0.20;;
69854;SDS011;57146;48.140;16.304;2023-12-20T10:00:24;2.55;;;0.15;;
69854;SDS011;57146;48.140;16.304;2023-12-20T10:02:58;3.05;;;0.40;;
69854;SDS011;57146;48.140;16.304;2023-12-20T10:05:32;2.25;;;0.17;;
69854;SDS011;57146;48.140;16.304;2023-12-20T10:08:01;2.00;;;0.20;;
69854;SDS011;57146;48.140;16.304;2023-12-20T10:10:29;2.37;;;0.30;;
69854;SDS011;57146;48.140;16.304;2023-12-20T10:13:11;2.40;;;0.20;;
69854;SDS011;57146;48.140;16.304;2023-12-20T10:15:39;2.72;;;0.30;;
69854;SDS011;57146;48.140;16.304;2023-12-20T10:18:06;2.20;;;0.20;;
69854;SDS011;57146;48.140;16.304;2023-12-20T10:20:34;2.38;;;0.30;;
69854;SDS011;57146;48.140;16.304;2023-12-20T10:23:01;2.30;;;0.10;;
69854;SDS011;57146;48.140;16.304;2023-12-20T10:25:28;2.42;;;0.10;;
69854;SDS011;57146;48.140;16.304;2023-12-20T10:31:00;2.28;;;0.10;;
69854;SDS011;57146;48.140;16.304;2023-12-20T10:33:27;2.38;;;0.10;;
69854;SDS011;57146;48.140;16.304;2023-12-20T10:35:55;1.97;;;0.30;;
69854;SDS011;57146;48.140;16.304;2023-12-20T10:38:23;1.85;;;0.10;;
69854;SDS011;57146;48.140;16.304;2023-12-20T10:40:52;2.55;;;0.17;;
69854;SDS011;57146;48.140;16.304;2023-12-20T10:43:23;2.53;;;0.00;;
69854;SDS011;57146;48.140;16.304;2023-12-20T10:45:51;1.95;;;0.10;;
69854;SDS011;57146;48.140;16.304;2023-12-20T10:48:18;1.37;;;0.00;;
69854;SDS011;57146;48.140;16.304;2023-12-20T10:50:46;1.73;;;0.10;;
69854;SDS011;57146;48.140;16.304;2023-12-20T10:53:14;2.65;;;0.10;;
69854;SDS011;57146;48.140;16.304;2023-12-20T10:55:42;1.60;;;0.00;;
69854;SDS011;57146;48.140;16.304;2023-12-20T10:58:10;2.05;;;0.10;;
69854;SDS011;57146;48.140;16.304;2023-12-20T11:00:40;1.90;;;0.00;;
69854;SDS011;57146;48.140;16.304;2023-12-20T11:03:10;1.33;;;0.00;;
69854;SDS011;57146;48.140;16.304;2023-12-20T11:11:27;2.28;;;0.20;;
69854;SDS011;57146;48.140;16.304;2023-12-20T11:14:03;1.87;;;0.00;;
69854;SDS011;57146;48.140;16.304;2023-12-20T11:16:37;2.13;;;0.10;;
69854;SDS011;57146;48.140;16.304;2023-12-20T11:19:17;2.40;;;0.00;;
69854;SDS011;57146;48.140;16.304;2023-12-20T11:21:45;1.13;;;0.00;;
69854;SDS011;57146;48.140;16.304;2023-12-20T11:24:13;1.55;;;0.00;;
69854;SDS011;57146;48.140;16.304;2023-12-20T11:26:46;1.47;;;0.00;;
69854;SDS011;57146;48.140;16.304;2023-12-20T11:29:33;1.50;;;0.00;;
69854;SDS011;57146;48.140;16.304;2023-12-20T11:32:27;1.80;;;0.00;;
69854;SDS011;57146;48.140;16.304;2023-12-20T11:34:51;3.05;;;0.00;;
69854;SDS011;57146;48.140;16.304;2023-12-20T11:37:20;1.30;;;0.00;;
69854;SDS011;57146;48.140;16.304;2023-12-20T11:39:55;2.00;;;0.00;;
69854;SDS011;57146;48.140;16.304;2023-12-20T11:42:23;2.33;;;0.00;;
69854;SDS011;57146;48.140;16.304;2023-12-20T11:44:50;1.10;;;0.00;;
69854;SDS011;57146;48.140;16.304;2023-12-20T11:47:17;1.80;;;0.00;;
69854;SDS011;57146;48.140;16.304;2023-12-20T11:49:46;1.38;;;0.00;;
69854;SDS011;57146;48.140;16.304;2023-12-20T11:52:14;1.17;;;0.00;;
69854;SDS011;57146;48.140;16.304;2023-12-20T11:54:41;1.23;;;0.00;;
69854;SDS011;57146;48.140;16.304;2023-12-20T11:57:08;1.42;;;0.00;;
69854;SDS011;57146;48.140;16.304;2023-12-20T11:59:36;1.00;;;0.00;;
69854;SDS011;57146;48.140;16.304;2023-12-20T12:02:03;1.77;;;0.00;;
69854;SDS011;57146;48.140;16.304;2023-12-20T12:04:31;1.47;;;0.00;;
69854;SDS011;57146;48.140;16.304;2023-12-20T12:06:58;1.35;;;0.00;;
69854;SDS011;57146;48.140;16.304;2023-12-20T12:09:25;1.85;;;0.00;;
69854;SDS011;57146;48.140;16.304;2023-12-20T12:11:52;1.10;;;0.00;;
69854;SDS011;57146;48.140;16.304;2023-12-20T12:14:19;1.27;;;0.00;;
69854;SDS011;57146;48.140;16.304;2023-12-20T12:16:47;1.50;;;0.00;;
69854;SDS011;57146;48.140;16.304;2023-12-20T12:19:24;1.52;;;0.00;;
69854;SDS011;57146;48.140;16.304;2023-12-20T12:22:07;1.08;;;0.00;;
69854;SDS011;57146;48.140;16.304;2023-12-20T12:24:45;1.63;;;0.00;;
69854;SDS011;57146;48.140;16.304;2023-12-20T12:27:13;1.25;;;0.00;;
69854;SDS011;57146;48.140;16.304;2023-12-20T12:29:41;0.77;;;0.00;;
69854;SDS011;57146;48.140;16.304;2023-12-20T12:32:26;1.40;;;0.00;;
69854;SDS011;57146;48.140;16.304;2023-12-20T12:34:54;1.10;;;0.00;;
69854;SDS011;57146;48.140;16.304;2023-12-20T12:37:22;0.93;;;0.10;;
69854;SDS011;57146;48.140;16.304;2023-12-20T12:39:49;1.73;;;0.00;;
69854;SDS011;57146;48.140;16.304;2023-12-20T12:42:16;1.10;;;0.00;;
69854;SDS011;57146;48.140;16.304;2023-12-20T12:44:43;1.30;;;0.00;;
69854;SDS011;57146;48.140;16.304;2023-12-20T12:47:10;1.20;;;0.00;;
69854;SDS011;57146;48.140;16.304;2023-12-20T12:49:37;0.90;;;0.00;;
69854;SDS011;57146;48.140;16.304;2023-12-20T12:52:08;1.15;;;0.00;;
69854;SDS011;57146;48.140;16.304;2023-12-20T12:54:35;1.00;;;0.00;;
69854;SDS011;57146;48.140;16.304;2023-12-20T12:57:02;1.00;;;0.00;;
69854;SDS011;57146;48.140;16.304;2023-12-20T12:59:29;1.08;;;0.00;;
69854;SDS011;57146;48.140;16.304;2023-12-20T13:01:56;0.90;;;0.00;;
69854;SDS011;57146;48.140;16.304;2023-12-20T13:04:23;1.23;;;0.00;;
69854;SDS011;57146;48.140;16.304;2023-12-20T13:06:50;1.27;;;0.00;;
69854;SDS011;57146;48.140;16.304;2023-12-20T13:09:18;1.30;;;0.00;;
69854;SDS011;57146;48.140;16.304;2023-12-20T13:11:45;1.85;;;0.00;;
69854;SDS011;57146;48.140;16.304;2023-12-20T13:14:12;3.17;;;0.10;;
69854;SDS011;57146;48.140;16.304;2023-12-20T13:16:39;1.38;;;0.03;;
69854;SDS011;57146;48.140;16.304;2023-12-20T13:19:06;1.73;;;0.00;;
69854;SDS011;57146;48.140;16.304;2023-12-20T13:21:34;1.17;;;0.00;;
69854;SDS011;57146;48.140;16.304;2023-12-20T13:24:01;2.13;;;0.10;;
69854;SDS011;57146;48.140;16.304;2023-12-20T13:26:28;1.25;;;0.00;;
69854;SDS011;57146;48.140;16.304;2023-12-20T13:28:57;1.42;;;0.00;;
69854;SDS011;57146;48.140;16.304;2023-12-20T13:31:24;1.87;;;0.07;;
69854;SDS011;57146;48.140;16.304;2023-12-20T13:33:51;1.00;;;0.00;;
69854;SDS011;57146;48.140;16.304;2023-12-20T13:36:18;3.42;;;0.10;;
69854;SDS011;57146;48.140;16.304;2023-12-20T13:38:45;2.38;;;0.00;;
69854;SDS011;57146;48.140;16.304;2023-12-20T13:41:12;1.77;;;0.08;;
69854;SDS011;57146;48.140;16.304;2023-12-20T13:43:39;2.03;;;0.00;;
69854;SDS011;57146;48.140;16.304;2023-12-20T13:46:06;1.65;;;0.00;;
69854;SDS011;57146;48.140;16.304;2023-12-20T13:48:34;0.93;;;0.00;;
69854;SDS011;57146;48.140;16.304;2023-12-20T13:51:01;1.92;;;0.03;;
69854;SDS011;57146;48.140;16.304;2023-12-20T13:53:28;1.70;;;0.00;;
69854;SDS011;57146;48.140;16.304;2023-12-20T13:55:55;1.43;;;0.00;;
69854;SDS011;57146;48.140;16.304;2023-12-20T13:58:22;2.03;;;0.00;;
69854;SDS011;57146;48.140;16.304;2023-12-20T14:00:49;2.00;;;0.00;;
69854;SDS011;57146;48.140;16.304;2023-12-20T14:03:16;1.20;;;0.00;;
69854;SDS011;57146;48.140;16.304;2023-12-20T14:05:43;1.50;;;0.00;;
69854;SDS011;57146;48.140;16.304;2023-12-20T14:08:10;2.63;;;0.10;;
69854;SDS011;57146;48.140;16.304;2023-12-20T14:10:38;0.95;;;0.00;;
69854;SDS011;57146;48.140;16.304;2023-12-20T14:13:05;2.53;;;0.00;;
69854;SDS011;57146;48.140;16.304;2023-12-20T14:15:32;2.35;;;0.00;;
69854;SDS011;57146;48.140;16.304;2023-12-20T14:17:59;1.10;;;0.10;;
69854;SDS011;57146;48.140;16.304;2023-12-20T14:20:30;1.10;;;0.00;;
69854;SDS011;57146;48.140;16.304;2023-12-20T14:22:57;1.15;;;0.00;;
69854;SDS011;57146;48.140;16.304;2023-12-20T14:25:24;1.30;;;0.00;;
69854;SDS011;57146;48.140;16.304;2023-12-20T14:27:52;1.35;;;0.00;;
69854;SDS011;57146;48.140;16.304;2023-12-20T14:30:19;1.30;;;0.00;;
69854;SDS011;57146;48.140;16.304;2023-12-20T14:32:46;2.50;;;0.00;;
69854;SDS011;57146;48.140;16.304;2023-12-20T14:35:14;1.20;;;0.00;;
69854;SDS011;57146;48.140;16.304;2023-12-20T14:37:41;1.05;;;0.00;;
69854;SDS011;57146;48.140;16.304;2023-12-20T14:40:09;1.05;;;0.00;;